createdAt,value
2023-04-02T00:00:10.734Z,75.08
2023-04-02T00:02:47.956Z,75.21
2023-04-02T00:05:14.178Z,74.81
2023-04-02T00:07:40.581Z,76.00
2023-04-02T00:10:35.684Z,76.40
2023-04-02T00:13:11.101Z,76.47
2023-04-02T00:15:39.614Z,75.86
2023-04-02T00:18:06.998Z,75.46
2023-04-02T00:20:38.005Z,75.24
2023-04-02T00:23:05.490Z,74.88
2023-04-02T00:25:34.846Z,76.26
2023-04-02T00:28:03.659Z,75.87
2023-04-02T00:30:30.223Z,75.20
2023-04-02T00:32:56.725Z,74.96
2023-04-02T00:35:26.770Z,75.54
2023-04-02T00:37:53.533Z,76.00
2023-04-02T00:40:29.123Z,76.08
2023-04-02T00:42:59.134Z,75.41
2023-04-02T00:45:36.685Z,75.78
2023-04-02T00:48:30.952Z,75.66
2023-04-02T00:51:01.207Z,77.08
2023-04-02T00:53:30.151Z,77.56
2023-04-02T00:55:58.671Z,76.88
2023-04-02T00:58:31.852Z,77.23
2023-04-02T01:00:59.584Z,76.12
2023-04-02T01:03:30.454Z,76.66
2023-04-02T01:06:09.506Z,76.53
2023-04-02T01:09:03.288Z,77.09
2023-04-02T01:11:41.682Z,77.28
2023-04-02T01:14:38.404Z,77.33
2023-04-02T01:17:23.057Z,76.29
2023-04-02T01:20:11.381Z,76.68
2023-04-02T01:22:49.876Z,76.47
2023-04-02T01:25:32.056Z,77.33
2023-04-02T01:28:11.556Z,76.82
2023-04-02T01:30:38.085Z,76.56
2023-04-02T01:33:05.938Z,76.95
2023-04-02T01:35:38.665Z,76.68
2023-04-02T01:38:13.567Z,77.10
2023-04-02T01:40:51.025Z,76.68
2023-04-02T02:14:58.554Z,77.57
2023-04-02T02:22:47.497Z,76.95
2023-04-02T02:25:21.572Z,78.03
2023-04-02T02:28:02.426Z,78.11
2023-04-02T02:30:36.580Z,78.59
2023-04-02T02:33:23.826Z,77.89
2023-04-02T02:35:56.544Z,78.71
2023-04-02T02:38:32.201Z,79.66
2023-04-02T02:41:04.698Z,79.14
2023-04-02T02:43:32.923Z,79.37
2023-04-02T02:46:01.000Z,79.28
2023-04-02T02:53:51.896Z,79.84
2023-04-02T02:56:20.264Z,79.87
2023-04-02T02:58:46.577Z,80.38
2023-04-02T03:01:13.045Z,80.49
2023-04-02T03:06:16.945Z,80.39
2023-04-02T03:08:54.541Z,80.90
2023-04-02T03:11:33.637Z,80.82
2023-04-02T03:16:42.435Z,81.10
2023-04-02T03:19:18.026Z,82.45
2023-04-02T03:21:51.614Z,81.96
2023-04-02T03:24:32.676Z,81.54
2023-04-02T03:35:01.584Z,82.12
2023-04-02T04:23:51.094Z,83.37
2023-04-02T04:26:26.014Z,84.36
2023-04-02T04:29:18.707Z,84.11
2023-04-02T04:31:50.977Z,84.24
2023-04-02T04:34:23.712Z,83.26
2023-04-02T04:36:55.130Z,83.33
2023-04-02T04:39:28.782Z,83.64
2023-04-02T04:41:59.518Z,83.18
2023-04-02T04:44:51.617Z,82.72
2023-04-02T04:47:23.926Z,82.78
2023-04-02T04:50:19.451Z,82.75
2023-04-02T04:52:45.917Z,82.65
2023-04-02T04:55:38.525Z,83.04
2023-04-02T04:58:42.933Z,82.90
2023-04-02T05:01:53.759Z,82.22
2023-04-02T05:04:32.102Z,82.75
2023-04-02T05:09:49.894Z,83.33
2023-04-02T05:12:31.434Z,82.75
2023-04-02T05:15:12.709Z,83.50
2023-04-02T05:18:00.977Z,82.67
2023-04-02T05:20:31.458Z,82.98
2023-04-02T05:23:05.640Z,83.08
2023-04-02T05:25:32.899Z,84.19
2023-04-02T05:28:15.689Z,84.01
2023-04-02T05:30:52.228Z,83.22
2023-04-02T05:33:18.464Z,82.86
2023-04-02T05:35:48.356Z,83.58
2023-04-02T05:38:27.773Z,83.56
2023-04-02T05:41:05.279Z,83.62
2023-04-02T05:43:35.208Z,83.55
2023-04-02T05:46:15.224Z,84.11
2023-04-02T05:59:29.939Z,82.74
2023-04-02T06:02:08.289Z,83.57
2023-04-02T06:04:46.790Z,83.08
2023-04-02T07:19:46.643Z,81.13
2023-04-02T07:27:29.373Z,80.57
2023-04-02T07:29:55.693Z,81.31
2023-04-02T07:32:21.986Z,80.92
2023-04-02T07:34:48.278Z,82.24
2023-04-02T07:37:14.675Z,82.83
2023-04-02T07:39:40.996Z,81.57
2023-04-02T08:07:21.411Z,82.55
2023-04-02T10:31:27.352Z,75.94
2023-04-02T10:34:02.992Z,75.48
2023-04-02T10:36:50.911Z,74.40
2023-04-02T10:39:25.443Z,74.05
2023-04-02T10:42:06.985Z,75.24
2023-04-02T10:44:54.320Z,74.69
2023-04-02T10:47:40.127Z,74.94
2023-04-02T10:50:49.630Z,74.71
2023-04-02T10:53:18.592Z,74.92
2023-04-02T10:55:51.724Z,74.08
2023-04-02T10:58:25.170Z,73.39
2023-04-02T11:00:56.607Z,74.16
2023-04-02T11:03:40.466Z,74.43
2023-04-02T11:06:22.354Z,73.02
2023-04-02T11:08:51.693Z,73.01
2023-04-02T11:11:32.001Z,70.49
2023-04-02T11:14:01.072Z,71.81
2023-04-02T11:16:28.092Z,71.88
2023-04-02T11:19:16.240Z,71.89
2023-04-02T11:21:57.145Z,71.31
2023-04-02T11:24:31.707Z,70.26
2023-04-02T11:27:10.194Z,71.01
2023-04-02T11:29:45.924Z,70.84
2023-04-02T11:32:28.810Z,70.93
2023-04-02T11:35:05.896Z,71.07
2023-04-02T11:37:45.564Z,70.85
2023-04-02T11:40:11.801Z,71.69
2023-04-02T11:42:48.880Z,71.42
2023-04-02T11:45:21.499Z,71.86
2023-04-02T11:48:17.336Z,71.14
2023-04-02T11:50:45.515Z,71.74
2023-04-02T11:53:11.934Z,71.87
2023-04-02T11:55:39.628Z,72.32
2023-04-02T11:58:28.162Z,72.92
2023-04-02T12:01:06.675Z,71.73
2023-04-02T12:04:01.181Z,72.44
2023-04-02T12:06:42.869Z,72.35
2023-04-02T12:09:22.714Z,71.26
2023-04-02T12:11:52.098Z,71.15
2023-04-02T12:14:45.728Z,71.81
2023-04-02T12:17:24.307Z,70.90
2023-04-02T12:19:58.341Z,71.38
2023-04-02T12:22:31.023Z,71.12
2023-04-02T12:25:21.728Z,71.23
2023-04-02T12:27:49.040Z,71.78
2023-04-02T12:30:21.555Z,72.18
2023-04-02T12:32:48.474Z,73.25
2023-04-02T12:35:28.694Z,72.69
2023-04-02T12:37:55.008Z,72.88
2023-04-02T12:40:21.379Z,72.45
2023-04-02T12:42:47.684Z,71.99
2023-04-02T12:45:27.124Z,71.58
2023-04-02T12:47:55.334Z,70.34
2023-04-02T12:50:22.826Z,71.14
2023-04-02T12:52:54.763Z,72.03
2023-04-02T12:55:24.391Z,71.34
2023-04-02T12:57:56.200Z,71.75
2023-04-02T13:00:22.423Z,71.83
2023-04-02T13:05:56.307Z,72.17
2023-04-02T13:08:26.037Z,71.53
2023-04-02T13:10:55.542Z,71.34
2023-04-02T13:13:28.939Z,72.29
2023-04-02T13:16:17.075Z,71.31
2023-04-02T13:18:46.210Z,72.47
2023-04-02T13:21:21.371Z,72.33
2023-04-02T13:23:47.645Z,71.66
2023-04-02T13:26:21.485Z,70.77
2023-04-02T13:28:59.887Z,72.07
2023-04-02T13:43:17.078Z,72.00
2023-04-02T13:45:45.689Z,71.63
2023-04-02T13:48:16.046Z,70.95
2023-04-02T13:50:42.555Z,70.57
2023-04-02T14:01:07.723Z,70.79
2023-04-02T14:03:34.264Z,71.09
2023-04-02T14:06:19.066Z,69.92
2023-04-02T14:08:56.546Z,70.48
2023-04-02T14:11:38.984Z,70.61
2023-04-02T14:14:10.951Z,70.46
2023-04-02T14:16:50.278Z,70.76
2023-04-02T14:19:34.628Z,70.62
2023-04-02T14:22:09.041Z,70.43
2023-04-02T14:25:01.588Z,70.60
2023-04-02T14:27:46.710Z,70.51
2023-04-02T14:30:27.400Z,70.51
2023-04-02T14:33:21.341Z,70.58
2023-04-02T14:35:57.763Z,70.81
2023-04-02T14:38:33.548Z,70.41
2023-04-02T14:41:07.421Z,70.83
2023-04-02T14:43:54.029Z,69.59
2023-04-02T14:46:25.469Z,69.87
2023-04-02T14:49:13.148Z,69.26
2023-04-02T14:51:53.619Z,69.68
2023-04-02T14:54:35.303Z,70.07
2023-04-02T14:57:11.146Z,69.54
2023-04-02T14:59:56.232Z,68.62
2023-04-02T15:02:34.335Z,68.44
2023-04-02T15:05:11.586Z,68.73
2023-04-02T15:07:59.427Z,68.12
2023-04-02T15:10:32.352Z,68.41
2023-04-02T15:13:02.909Z,68.55
2023-04-02T15:15:42.971Z,67.97
2023-04-02T15:18:12.757Z,67.38
2023-04-02T15:20:49.786Z,67.53
2023-04-02T15:23:31.284Z,67.53
2023-04-02T15:26:12.196Z,67.36
2023-04-02T15:28:42.861Z,67.28
2023-04-02T15:31:13.605Z,66.50
2023-04-02T15:34:05.293Z,67.20
2023-04-02T15:37:01.443Z,66.00
2023-04-02T15:39:38.833Z,66.56
2023-04-02T15:42:29.153Z,65.86
2023-04-02T15:45:07.405Z,65.94
2023-04-02T15:47:53.961Z,66.80
2023-04-02T15:50:53.843Z,66.06
2023-04-02T15:53:34.086Z,66.56
2023-04-02T15:56:41.882Z,66.10
2023-04-02T15:59:30.472Z,66.39
2023-04-02T16:02:15.592Z,65.42
2023-04-02T16:04:50.045Z,64.86
2023-04-02T16:07:45.316Z,64.02
2023-04-02T16:10:22.499Z,64.29
2023-04-02T16:12:57.065Z,64.46
2023-04-02T16:15:40.426Z,65.10
2023-04-02T16:18:31.875Z,64.35
2023-04-02T16:21:01.566Z,64.99
2023-04-02T16:23:36.931Z,63.76
2023-04-02T16:26:26.106Z,64.63
2023-04-02T16:29:12.360Z,64.63
2023-04-02T16:31:49.973Z,64.69
2023-04-02T16:34:33.786Z,64.96
2023-04-02T16:37:27.582Z,64.89
2023-04-02T16:40:18.677Z,63.98
2023-04-02T16:43:15.973Z,64.76
2023-04-02T16:46:00.173Z,64.90
2023-04-02T16:48:32.268Z,64.81
2023-04-02T16:51:13.899Z,67.16
2023-04-02T16:54:01.669Z,67.16
2023-04-02T16:56:59.728Z,63.16
2023-04-02T16:59:41.120Z,62.88
2023-04-02T17:02:37.778Z,62.80
2023-04-02T17:05:22.518Z,62.42
2023-04-02T17:07:51.729Z,63.75
2023-04-02T17:10:45.216Z,63.26
2023-04-02T17:13:26.605Z,63.95
2023-04-02T17:16:11.702Z,64.27
2023-04-02T17:18:41.592Z,63.58
2023-04-02T17:21:13.662Z,64.95
2023-04-02T17:23:56.336Z,64.42
2023-04-02T17:26:27.227Z,64.82
2023-04-02T17:28:57.041Z,64.29
2023-04-02T17:31:31.172Z,64.48
2023-04-02T17:33:57.521Z,64.19
2023-04-02T17:36:38.889Z,63.68
2023-04-02T17:39:22.745Z,64.68
2023-04-02T17:41:57.806Z,65.06
2023-04-02T17:44:48.454Z,64.67
2023-04-02T17:47:14.741Z,65.07
2023-04-02T17:50:01.276Z,65.78
2023-04-02T17:52:45.728Z,65.61
2023-04-02T17:55:27.817Z,66.71
2023-04-02T17:58:17.080Z,66.13
2023-04-02T18:01:05.383Z,65.99
2023-04-02T18:03:37.894Z,66.99
2023-04-02T18:06:25.705Z,67.68
2023-04-02T18:09:02.561Z,66.97
2023-04-02T18:12:01.931Z,66.88
2023-04-02T18:14:51.995Z,67.37
2023-04-02T18:17:53.223Z,68.06
2023-04-02T18:20:38.303Z,67.79
2023-04-02T18:23:10.928Z,66.87
2023-04-02T18:25:58.385Z,68.10
2023-04-02T18:28:49.038Z,67.79
2023-04-02T18:31:27.072Z,67.50
2023-04-02T18:34:12.524Z,67.54
2023-04-02T18:37:14.425Z,67.49
2023-04-02T18:40:10.946Z,67.52
2023-04-02T18:42:44.566Z,67.14
2023-04-02T18:45:43.084Z,66.96
2023-04-02T18:48:34.088Z,67.31
2023-04-02T18:51:02.065Z,67.31
2023-04-02T18:53:32.327Z,66.50
2023-04-02T18:56:06.054Z,66.38
2023-04-02T18:58:47.556Z,65.89
2023-04-02T19:01:19.448Z,64.98
2023-04-02T19:03:52.564Z,65.96
2023-04-02T19:06:25.374Z,66.57
2023-04-02T19:09:01.180Z,65.17
2023-04-02T19:11:27.728Z,65.21
2023-04-02T19:13:55.108Z,65.08
2023-04-02T19:16:29.651Z,65.55
2023-04-02T19:19:17.145Z,63.78
2023-04-02T19:22:10.895Z,64.13
2023-04-02T19:24:56.040Z,64.30
2023-04-02T19:27:37.368Z,63.52
2023-04-02T19:30:33.211Z,65.16
2023-04-02T19:33:24.092Z,63.63
2023-04-02T19:36:00.991Z,64.77
2023-04-02T19:38:45.471Z,64.18
2023-04-02T19:41:44.036Z,63.50
2023-04-02T19:44:13.407Z,63.51
2023-04-02T19:46:42.861Z,63.31
2023-04-02T19:49:16.076Z,63.85
2023-04-02T19:51:43.795Z,63.57
2023-04-02T19:54:10.077Z,64.33
2023-04-02T19:56:36.417Z,63.53
2023-04-02T19:59:17.241Z,63.82
2023-04-02T20:01:45.098Z,63.82
2023-04-02T20:04:11.507Z,64.31
2023-04-02T20:06:37.823Z,64.04
2023-04-02T20:09:04.387Z,63.31
2023-04-02T20:11:30.783Z,63.54
2023-04-02T20:13:57.143Z,63.28
2023-04-02T20:16:23.625Z,62.75
2023-04-02T20:18:50.103Z,63.48
2023-04-02T20:21:16.946Z,62.96
2023-04-02T20:23:43.257Z,62.86
2023-04-02T20:26:09.663Z,62.60
2023-04-02T20:28:35.963Z,63.70
2023-04-02T20:31:13.940Z,62.75
2023-04-02T20:33:41.130Z,62.61
2023-04-02T20:36:10.676Z,62.58
2023-04-02T20:38:37.196Z,62.86
2023-04-02T20:41:05.127Z,62.81
2023-04-02T20:43:31.566Z,62.48
2023-04-02T20:46:03.688Z,62.67
2023-04-02T20:48:31.499Z,61.40
2023-04-02T20:50:58.395Z,62.53
2023-04-02T20:53:25.113Z,62.09
2023-04-02T20:55:51.591Z,62.70
2023-04-02T20:58:18.678Z,62.55
2023-04-02T21:00:45.682Z,62.08
2023-04-02T21:03:12.095Z,61.33
2023-04-02T21:05:46.337Z,60.62
2023-04-02T21:08:13.690Z,60.94
2023-04-02T21:10:40.606Z,60.32
2023-04-02T21:13:07.293Z,60.91
2023-04-02T21:15:33.905Z,60.12
2023-04-02T21:18:00.551Z,60.13
2023-04-02T21:20:26.953Z,59.47
2023-04-02T21:22:53.316Z,59.40
2023-04-02T21:25:19.653Z,59.88
2023-04-02T21:27:45.954Z,59.63
2023-04-02T21:30:12.482Z,60.80
2023-04-02T21:32:38.922Z,59.94
2023-04-02T21:35:05.905Z,61.13
2023-04-02T21:37:32.213Z,60.28
2023-04-02T21:39:58.525Z,60.40
2023-04-02T21:42:24.793Z,61.62
2023-04-02T21:44:51.209Z,61.36
2023-04-02T21:47:17.623Z,60.85
2023-04-02T21:49:43.967Z,61.79
2023-04-02T21:52:10.304Z,60.41
2023-04-02T21:54:37.628Z,60.44
2023-04-02T21:57:04.065Z,60.67
2023-04-02T21:59:30.364Z,60.17
2023-04-02T22:01:56.819Z,60.94
2023-04-02T22:04:25.500Z,60.70
2023-04-02T22:06:52.640Z,60.43
2023-04-02T22:09:24.085Z,60.64
2023-04-02T22:11:53.848Z,60.46
2023-04-02T22:14:20.697Z,60.75
2023-04-02T22:16:47.241Z,60.42
2023-04-02T22:19:15.545Z,59.33
2023-04-02T22:21:42.316Z,59.35
2023-04-02T22:24:13.095Z,60.26
2023-04-02T22:26:40.505Z,60.41
2023-04-02T22:29:07.425Z,60.15
2023-04-02T22:31:34.153Z,60.71
2023-04-02T22:34:02.023Z,60.39
2023-04-02T22:36:29.176Z,60.39
2023-04-02T22:38:57.070Z,61.73
2023-04-02T22:41:25.769Z,60.90
2023-04-02T22:43:52.136Z,60.94
2023-04-02T22:46:19.465Z,61.01
2023-04-02T22:48:47.225Z,61.76
2023-04-02T22:51:14.679Z,61.44
2023-04-02T22:53:41.509Z,61.81
2023-04-02T22:56:14.304Z,62.15
2023-04-02T22:58:41.530Z,61.70
2023-04-02T23:01:15.619Z,61.49
2023-04-02T23:03:42.227Z,61.30
2023-04-02T23:06:12.492Z,59.48
2023-04-02T23:08:39.449Z,60.35
2023-04-02T23:11:15.397Z,60.57
2023-04-02T23:13:43.743Z,60.30
2023-04-02T23:16:12.796Z,60.66
2023-04-02T23:18:40.715Z,61.03
2023-04-02T23:21:08.178Z,59.43
2023-04-02T23:23:34.958Z,60.12
2023-04-02T23:26:06.450Z,60.90
2023-04-02T23:28:33.463Z,60.70
2023-04-02T23:31:01.404Z,60.04
2023-04-02T23:33:27.763Z,60.05
2023-04-02T23:35:54.243Z,58.91
2023-04-02T23:38:20.556Z,59.84
2023-04-02T23:40:46.965Z,60.08
2023-04-02T23:43:13.244Z,59.89
2023-04-02T23:45:39.526Z,59.17
2023-04-02T23:48:06.097Z,60.02
2023-04-02T23:50:32.434Z,58.91
2023-04-02T23:52:58.728Z,59.72
2023-04-02T23:55:25.189Z,59.77
2023-04-02T23:57:51.555Z,59.70
